Airfield :
LOGIN :

Register | Disclaimer

   EN    FR    IT 

 










Legend :    VFR   Marginal VFR   IFR   Intensive IFR   Very Intensive IFR
Visi :
Ceiling :
>= 8 km
>= 3000ft
5 to 8 km
1000 to 3000 ft
1500m to 5 km
500 to 1000 ft
800 to 1500m
200 to 500 ft
< 800m
< 200 ft
Symbols :   Thunderstorms  Fog  Heavy snow  Heavy precipitations  Wind > 20 kt
SIGMETs :     Misc.  Thunderstorms  Icing  Turbulence  Mountain Waves  Volcanic Ashes






- Airport Elevation : 37 ft


EHVL - Vlieland Heliport

CURRENT METAR :
  • 251925Z AUTO 27015KT 9999 SCT028 BKN032 OVC054 14/08 Q1010 BLU

EXPIRED METARs :
  • 251855Z AUTO 25014KT 9999 SCT036 BKN048 OVC059 14/07 Q1010 BLU
  • 251825Z AUTO 26015KT 9999 FEW036 SCT042 OVC050 14/08 Q1011 BLU
  • 251755Z AUTO 26013KT 9999 FEW031 SCT035 OVC060 14/08 Q1011 BLU
  • 251725Z AUTO 28008KT 9999 FEW057 SCT063 OVC220 13/09 Q1012 BLU
  • 251655Z AUTO 27010KT 9999 SCT031 SCT041 OVC230 14/08 Q1012 BLU

Expired Forecast.



MET'MAP, your aeronautical weather chart ! - Copyright ORBIFLY December 2007 - Disclaimer

ORBIFLY MET'MAP TEAM :

Programming & Development : Alexandra Zaïnal
Original concept : Baudouin d'Aumeries
Technical & hardware support : Manuel Goepfert
Assistance : Marc-Olivier Méhu




SOURCES & CREDITS :

   NOAA